Pagrindinis puslapis
METAR-TAF:

METAR-TAF

Oro uostai :

Čijampino oro uostas

Roma Čijampino, Italija

platuma: 41-47N, ilguma: 012-35E, Aukštis: 129 m

Dabartinis oras

Ataskaita buvo paskelbta 1 valandą ir 34 minutes, ne 20:50 UTC
Vėjas 4 kt iš Pietų/Pietryčių
Temperatūra 14°C
Drėgmė 63%
Slėgis 1026 hPa
Matomumas 10 km arba daugiau
Mažai debesys ne aukštis 7000 ft

METAR: LIRA 072050Z 15004KT 9999 FEW070 14/07 Q1026

Laikas: 00:24 (22:24 UTC)

Prognozė

Ataskaita buvo paskelbta 5 valandos ir 24 minutes, ne 17:00 UTC
Prognozė galioja nuo 07 metu 18 UTC su 08 metu 18 UTC
Vėjas 5 kt nuo kintamojo kryptimis
Matomumas 10 km arba daugiau
nėra debesų žemiau 1500 m ir nėra kamuolinių lietaus debesų

TAF: LIRA 071700Z 0718/0818 VRB05KT CAVOK

Orai ataskaitas ir orų prognozės (METAR, TAF).

turimą stotys yra geltonos ir raudonos taškus žemėlapyje.

Perkelti pele per norėdami pamatyti stoties vardą.

Tada spustelėkite, norėdami matyti oro stebėjimo ir prognozės.

Norėdami pakeisti žemėlapį: spustelėkite ant žalios mygtukų su juodo kryžiaus žemyn,; žalią mygtuką su brūkšneliu, jei norite nutolinti; arba žalių rodyklių gretimoms žemėlapius.


METAR-TAF: